createdAt,value
2023-10-20T00:01:59.307Z,53.20
2023-10-20T00:04:46.494Z,49.50
2023-10-20T00:07:33.822Z,51.30
2023-10-20T00:10:20.704Z,50.00
2023-10-20T00:13:07.921Z,49.50
2023-10-20T00:15:54.908Z,51.20
2023-10-20T00:18:41.723Z,34.30
2023-10-20T00:21:30.655Z,49.00
2023-10-20T00:24:17.867Z,46.30
2023-10-20T00:27:05.287Z,47.90
2023-10-20T00:29:52.849Z,50.20
2023-10-20T00:32:42.707Z,49.50
2023-10-20T00:35:30.814Z,46.40
2023-10-20T00:38:18.473Z,45.50
2023-10-20T00:41:05.921Z,47.70
2023-10-20T00:43:54.388Z,48.00
2023-10-20T00:46:46.537Z,48.10
2023-10-20T00:49:34.472Z,47.00
2023-10-20T00:52:22.698Z,32.00
2023-10-20T00:55:10.251Z,48.10
2023-10-20T00:57:58.379Z,46.70
2023-10-20T01:04:14.083Z,46.30
2023-10-20T01:07:01.899Z,48.30
2023-10-20T01:09:49.741Z,48.10
2023-10-20T01:12:37.135Z,48.70
2023-10-20T01:15:25.301Z,47.40
2023-10-20T01:18:13.126Z,48.70
2023-10-20T01:21:00.895Z,48.10
2023-10-20T01:23:47.969Z,45.90
2023-10-20T01:26:35.523Z,45.40
2023-10-20T01:29:26.569Z,46.90
2023-10-20T01:32:14.757Z,49.70
2023-10-20T01:35:02.245Z,45.60
2023-10-20T01:37:49.591Z,48.00
2023-10-20T01:40:36.740Z,47.10
2023-10-20T01:43:24.622Z,46.20
2023-10-20T01:46:11.410Z,46.00
2023-10-20T01:48:58.892Z,44.70
2023-10-20T01:51:46.585Z,47.00
2023-10-20T01:54:34.834Z,47.70
2023-10-20T01:57:22.521Z,43.40
2023-10-20T02:00:14.682Z,51.50
2023-10-20T02:03:02.854Z,45.10
2023-10-20T02:05:49.615Z,44.70
2023-10-20T02:08:38.959Z,43.60
2023-10-20T02:11:26.380Z,47.60
2023-10-20T02:14:14.041Z,46.60
2023-10-20T02:17:01.082Z,45.10
2023-10-20T02:19:48.958Z,47.60
2023-10-20T02:22:35.680Z,43.70
2023-10-20T02:25:23.480Z,46.30
2023-10-20T02:28:10.957Z,45.10
2023-10-20T02:30:58.712Z,42.10
2023-10-20T02:33:45.766Z,43.20
2023-10-20T02:36:35.649Z,42.30
2023-10-20T02:39:23.340Z,45.40
2023-10-20T02:42:11.225Z,40.90
2023-10-20T02:44:59.249Z,41.30
2023-10-20T02:47:46.502Z,39.50
2023-10-20T02:50:34.312Z,39.60
2023-10-20T02:53:21.774Z,39.00
2023-10-20T02:56:13.720Z,39.80
2023-10-20T02:59:00.664Z,40.60
2023-10-20T03:01:47.551Z,38.30
2023-10-20T03:04:35.604Z,39.40
2023-10-20T03:07:26.135Z,41.70
2023-10-20T03:10:13.752Z,41.40
2023-10-20T03:13:00.629Z,37.80
2023-10-20T03:15:47.781Z,40.70
2023-10-20T03:18:34.805Z,40.60
2023-10-20T03:21:22.970Z,43.40
2023-10-20T03:24:10.692Z,40.10
2023-10-20T03:26:59.674Z,42.60
2023-10-20T03:29:49.106Z,39.20
2023-10-20T03:32:37.641Z,39.30
2023-10-20T03:35:24.554Z,39.00
2023-10-20T03:38:11.720Z,32.90
2023-10-20T03:41:07.312Z,36.00
2023-10-20T03:43:55.081Z,38.10
2023-10-20T03:46:49.977Z,37.90
2023-10-20T03:49:37.067Z,40.60
2023-10-20T03:52:24.717Z,40.90
2023-10-20T03:55:14.864Z,37.30
2023-10-20T03:58:02.432Z,36.30
2023-10-20T04:00:53.625Z,30.60
2023-10-20T04:03:42.378Z,41.00
2023-10-20T04:06:29.858Z,50.80
2023-10-20T04:09:19.274Z,44.40
2023-10-20T04:12:06.366Z,41.20
2023-10-20T04:14:56.660Z,39.90
2023-10-20T04:17:44.960Z,39.70
2023-10-20T04:20:38.923Z,39.40
2023-10-20T04:23:27.557Z,38.40
2023-10-20T04:26:22.741Z,38.10
2023-10-20T04:29:13.558Z,37.30
2023-10-20T04:32:20.355Z,38.30
2023-10-20T04:35:25.936Z,25.20
2023-10-20T04:38:32.495Z,38.00
2023-10-20T04:41:38.161Z,36.10
2023-10-20T04:44:25.693Z,34.80
2023-10-20T04:47:31.722Z,35.80
2023-10-20T04:50:37.636Z,35.40
2023-10-20T04:53:41.929Z,36.60
2023-10-20T04:57:00.103Z,40.00
2023-10-20T04:59:48.084Z,38.90
2023-10-20T05:02:40.464Z,37.50
2023-10-20T05:05:28.127Z,35.40
2023-10-20T05:08:18.730Z,46.90
2023-10-20T05:11:06.737Z,43.50
2023-10-20T05:13:54.723Z,40.20
2023-10-20T05:16:42.750Z,43.20
2023-10-20T05:19:34.008Z,52.50
2023-10-20T05:22:21.516Z,48.40
2023-10-20T05:25:10.060Z,47.20
2023-10-20T05:27:57.615Z,41.30
2023-10-20T05:30:47.676Z,42.60
2023-10-20T05:33:35.550Z,36.80
2023-10-20T05:36:22.863Z,50.80
2023-10-20T05:39:10.908Z,52.80
2023-10-20T05:41:58.727Z,48.50
2023-10-20T05:44:49.700Z,44.50
2023-10-20T05:47:37.804Z,45.40
2023-10-20T05:50:25.772Z,45.80
2023-10-20T05:53:12.912Z,40.80
2023-10-20T05:56:00.021Z,41.10
2023-10-20T05:58:47.672Z,35.90
2023-10-20T06:01:35.628Z,36.90
2023-10-20T06:04:22.750Z,37.20
2023-10-20T06:07:10.439Z,36.30
2023-10-20T06:09:57.936Z,34.20
2023-10-20T06:12:45.700Z,36.90
2023-10-20T06:15:33.476Z,34.00
2023-10-20T06:18:32.709Z,32.50
2023-10-20T06:21:23.915Z,35.20
2023-10-20T06:24:11.923Z,39.20
2023-10-20T06:27:04.094Z,38.90
2023-10-20T06:30:07.082Z,36.90
2023-10-20T06:32:58.191Z,35.70
2023-10-20T06:35:52.600Z,33.90
2023-10-20T06:38:45.644Z,30.50
2023-10-20T06:41:33.435Z,37.20
2023-10-20T06:44:21.007Z,32.40
2023-10-20T06:47:08.683Z,34.00
2023-10-20T06:49:55.907Z,31.10
2023-10-20T06:52:43.937Z,27.30
2023-10-20T06:55:59.226Z,24.50
2023-10-20T06:58:39.297Z,36.30
2023-10-20T07:01:28.225Z,40.50
2023-10-20T07:04:15.957Z,26.60
2023-10-20T07:07:03.713Z,40.40
2023-10-20T07:09:50.799Z,38.80
2023-10-20T07:12:39.092Z,31.60
2023-10-20T07:15:26.867Z,27.80
2023-10-20T07:18:14.290Z,28.20
2023-10-20T07:21:04.418Z,22.30
2023-10-20T07:23:51.622Z,21.10
2023-10-20T07:26:39.321Z,25.00
2023-10-20T07:29:27.736Z,28.50
2023-10-20T07:32:16.146Z,28.10
2023-10-20T07:35:04.511Z,25.90
2023-10-20T07:37:51.900Z,27.20
2023-10-20T07:40:39.616Z,25.10
2023-10-20T07:43:26.774Z,23.10
2023-10-20T07:46:17.610Z,24.90
2023-10-20T07:49:14.777Z,22.10
2023-10-20T07:52:03.346Z,23.20
2023-10-20T07:54:50.335Z,26.50
2023-10-20T07:57:37.947Z,25.20
2023-10-20T08:00:25.522Z,26.00
2023-10-20T08:03:13.766Z,28.40
2023-10-20T08:06:04.409Z,30.80
2023-10-20T08:08:52.301Z,30.30
2023-10-20T08:11:40.846Z,28.60
2023-10-20T08:14:28.324Z,24.60
2023-10-20T08:17:15.913Z,23.90
2023-10-20T08:20:08.594Z,23.40
2023-10-20T08:22:55.996Z,23.20
2023-10-20T08:25:43.328Z,23.10
2023-10-20T08:28:31.096Z,23.80
2023-10-20T08:31:18.907Z,23.60
2023-10-20T08:34:06.319Z,20.70
2023-10-20T08:36:53.882Z,20.30
2023-10-20T08:39:41.300Z,18.90
2023-10-20T08:42:30.337Z,17.90
2023-10-20T08:45:17.398Z,16.80
2023-10-20T08:48:04.981Z,19.00
2023-10-20T08:50:52.809Z,16.00
2023-10-20T08:53:41.036Z,14.90
2023-10-20T08:56:28.996Z,15.40
2023-10-20T08:59:16.359Z,16.30
2023-10-20T09:02:04.286Z,14.50
2023-10-20T09:04:52.620Z,17.90
2023-10-20T09:07:40.416Z,17.40
2023-10-20T09:10:27.810Z,17.60
2023-10-20T09:13:15.049Z,18.00
2023-10-20T09:16:04.139Z,18.80
2023-10-20T09:18:54.551Z,18.10
2023-10-20T09:21:45.734Z,17.90
2023-10-20T09:24:33.118Z,18.50
2023-10-20T09:30:37.294Z,19.00
2023-10-20T09:33:25.993Z,18.10
2023-10-20T09:36:13.992Z,18.60
2023-10-20T09:39:04.107Z,18.80
2023-10-20T09:41:52.264Z,17.20
2023-10-20T09:44:45.013Z,17.70
2023-10-20T09:47:34.024Z,17.70
2023-10-20T09:50:24.503Z,17.00
2023-10-20T09:53:13.493Z,19.40
2023-10-20T09:56:02.418Z,18.20
2023-10-20T09:58:56.743Z,19.10
2023-10-20T10:01:48.897Z,18.60
2023-10-20T10:04:43.035Z,15.40
2023-10-20T10:07:34.760Z,15.30
2023-10-20T10:10:23.863Z,16.10
2023-10-20T10:13:13.477Z,17.90
2023-10-20T10:16:10.514Z,14.60
2023-10-20T10:19:11.403Z,16.80
2023-10-20T10:22:02.814Z,16.10
2023-10-20T10:24:54.547Z,17.00
2023-10-20T10:27:43.012Z,15.30
2023-10-20T10:30:31.121Z,15.40
2023-10-20T10:33:23.694Z,15.80
2023-10-20T10:36:12.727Z,15.00
2023-10-20T10:39:00.717Z,15.90
2023-10-20T10:41:49.657Z,15.90
2023-10-20T10:44:40.452Z,16.70
2023-10-20T10:47:34.415Z,14.10
2023-10-20T10:50:24.321Z,13.90
2023-10-20T10:53:12.556Z,12.80
2023-10-20T10:56:00.757Z,13.60
2023-10-20T10:58:48.748Z,12.50
2023-10-20T11:01:42.493Z,10.50
2023-10-20T11:04:32.575Z,10.70
2023-10-20T11:07:22.757Z,9.70
2023-10-20T11:10:11.096Z,10.00
2023-10-20T11:12:59.574Z,8.70
2023-10-20T11:15:48.306Z,11.50
2023-10-20T11:18:39.259Z,11.10
2023-10-20T11:21:28.012Z,11.10
2023-10-20T11:24:27.757Z,12.00
2023-10-20T11:27:17.479Z,12.30
2023-10-20T11:30:07.245Z,10.50
2023-10-20T11:32:55.349Z,12.70
2023-10-20T11:35:43.492Z,14.40
2023-10-20T11:38:30.849Z,15.40
2023-10-20T11:41:18.176Z,15.60
2023-10-20T11:44:05.781Z,14.90
2023-10-20T11:46:54.978Z,13.10
2023-10-20T11:49:43.433Z,14.10
2023-10-20T11:52:32.778Z,15.10
2023-10-20T11:55:22.372Z,15.20
2023-10-20T11:58:12.905Z,13.40
2023-10-20T12:01:01.466Z,14.40
2023-10-20T12:03:49.743Z,16.50
2023-10-20T12:06:38.461Z,16.90
2023-10-20T12:09:27.053Z,17.40
2023-10-20T12:12:16.708Z,15.70
2023-10-20T12:15:05.523Z,17.00
2023-10-20T12:17:53.762Z,15.50
2023-10-20T12:20:42.861Z,15.40
2023-10-20T12:23:30.904Z,14.40
2023-10-20T12:26:22.924Z,14.30
2023-10-20T12:29:11.508Z,14.20
2023-10-20T12:32:03.031Z,12.60
2023-10-20T12:34:50.742Z,12.90
2023-10-20T12:37:40.587Z,13.50
2023-10-20T12:40:28.977Z,13.90
2023-10-20T12:43:17.785Z,13.20
2023-10-20T12:46:06.936Z,13.90
2023-10-20T12:48:56.842Z,13.30
2023-10-20T12:51:45.398Z,13.90
2023-10-20T12:54:33.910Z,11.80
2023-10-20T12:57:22.800Z,13.30
2023-10-20T13:00:12.056Z,12.70
2023-10-20T13:03:01.038Z,13.10
2023-10-20T13:05:50.116Z,11.40
2023-10-20T13:08:39.280Z,12.70
2023-10-20T13:11:28.141Z,13.30
2023-10-20T13:14:16.666Z,12.40
2023-10-20T13:17:04.904Z,11.70
2023-10-20T13:19:55.050Z,13.60
2023-10-20T13:22:42.521Z,12.60
2023-10-20T13:25:29.387Z,13.80
2023-10-20T13:28:16.980Z,13.30
2023-10-20T13:31:13.001Z,13.40
2023-10-20T13:34:03.954Z,12.80
2023-10-20T13:36:51.522Z,12.30
2023-10-20T13:39:39.110Z,12.40
2023-10-20T13:42:26.997Z,10.60
2023-10-20T13:45:14.324Z,12.20
2023-10-20T13:48:02.242Z,12.70
2023-10-20T13:50:51.531Z,12.40
2023-10-20T13:53:39.242Z,13.10
2023-10-20T13:56:28.331Z,10.90
2023-10-20T13:59:17.252Z,10.40
2023-10-20T14:02:05.168Z,10.70
2023-10-20T14:04:52.713Z,11.70
2023-10-20T14:07:40.613Z,9.20
2023-10-20T14:10:30.700Z,8.70
2023-10-20T14:13:21.289Z,8.60
2023-10-20T14:16:10.528Z,9.50
2023-10-20T14:18:59.731Z,9.20
2023-10-20T14:21:48.734Z,11.50
2023-10-20T14:24:37.729Z,9.40
2023-10-20T14:27:26.882Z,10.30
2023-10-20T14:30:14.945Z,11.00
2023-10-20T14:33:03.722Z,11.00
2023-10-20T14:35:55.832Z,11.80
2023-10-20T14:38:44.821Z,10.10
2023-10-20T14:41:33.913Z,11.20
2023-10-20T14:44:21.633Z,13.00
2023-10-20T14:47:09.769Z,12.00
2023-10-20T14:49:59.559Z,12.60
2023-10-20T14:52:47.355Z,11.70
2023-10-20T14:55:36.469Z,12.60
2023-10-20T14:58:24.587Z,12.30
2023-10-20T15:01:13.402Z,12.80
2023-10-20T15:04:14.059Z,12.50
2023-10-20T15:07:10.300Z,13.60
2023-10-20T15:09:59.315Z,15.90
2023-10-20T15:12:47.462Z,16.30
2023-10-20T15:15:36.338Z,18.20
2023-10-20T15:18:23.407Z,20.40
2023-10-20T15:21:10.714Z,24.10
2023-10-20T15:23:58.300Z,23.40
2023-10-20T15:26:47.080Z,19.20
2023-10-20T15:29:34.353Z,22.10
2023-10-20T15:32:22.033Z,22.70
2023-10-20T15:35:10.790Z,23.50
2023-10-20T15:37:58.408Z,24.90
2023-10-20T15:40:55.019Z,25.00
2023-10-20T15:43:42.552Z,25.50
2023-10-20T15:46:29.806Z,23.90
2023-10-20T15:49:17.261Z,29.40
2023-10-20T15:52:04.795Z,30.10
2023-10-20T15:54:53.322Z,25.10
2023-10-20T15:57:40.772Z,25.00
2023-10-20T16:00:28.230Z,25.40
2023-10-20T16:03:20.679Z,24.10
2023-10-20T16:06:12.286Z,22.60
2023-10-20T16:09:00.180Z,24.90
2023-10-20T16:11:48.184Z,21.90
2023-10-20T16:14:36.130Z,22.30
2023-10-20T16:17:22.710Z,19.70
2023-10-20T16:20:10.344Z,22.70
2023-10-20T16:22:57.421Z,22.50
2023-10-20T16:25:44.706Z,21.80
2023-10-20T16:28:32.074Z,20.30
2023-10-20T16:31:19.396Z,19.70
2023-10-20T16:34:06.602Z,19.00
2023-10-20T16:36:54.479Z,18.30
2023-10-20T16:39:43.126Z,15.10
2023-10-20T16:42:31.047Z,17.30
2023-10-20T16:45:18.985Z,16.00
2023-10-20T16:48:08.407Z,16.60
2023-10-20T16:50:59.468Z,22.10
2023-10-20T16:53:49.176Z,32.30
2023-10-20T16:56:37.908Z,51.50
2023-10-20T16:59:27.464Z,95.80
2023-10-20T17:02:17.224Z,86.60
2023-10-20T17:05:07.014Z,138.50
2023-10-20T17:07:55.455Z,177.70
2023-10-20T17:10:44.111Z,171.00
2023-10-20T17:13:31.988Z,148.20
2023-10-20T17:16:20.164Z,171.70
2023-10-20T17:19:07.480Z,152.50
2023-10-20T17:21:54.874Z,129.50
2023-10-20T17:24:43.763Z,105.00
2023-10-20T17:27:30.826Z,71.60
2023-10-20T17:30:18.340Z,59.50
2023-10-20T17:33:05.980Z,64.20
2023-10-20T17:35:54.062Z,65.60
2023-10-20T17:38:41.417Z,58.10
2023-10-20T17:41:28.759Z,70.10
2023-10-20T17:44:16.926Z,61.40
2023-10-20T17:47:04.829Z,43.90
2023-10-20T17:49:52.372Z,46.70
2023-10-20T17:52:39.758Z,37.00
2023-10-20T17:55:26.907Z,32.70
2023-10-20T17:58:14.151Z,25.10
2023-10-20T18:01:08.952Z,23.30
2023-10-20T18:03:56.798Z,21.80
2023-10-20T18:06:44.852Z,21.90
2023-10-20T18:09:31.993Z,19.70
2023-10-20T18:12:18.789Z,19.10
2023-10-20T18:15:06.899Z,17.30
2023-10-20T18:17:54.752Z,16.50
2023-10-20T18:20:42.034Z,17.10
2023-10-20T18:23:29.831Z,18.50
2023-10-20T18:26:18.111Z,17.60
2023-10-20T18:29:05.763Z,15.70
2023-10-20T18:31:52.713Z,16.80
2023-10-20T18:34:40.525Z,15.90
2023-10-20T18:37:28.123Z,18.10
2023-10-20T18:40:15.820Z,15.90
2023-10-20T18:43:03.287Z,14.90
2023-10-20T18:45:53.939Z,16.50
2023-10-20T18:48:41.752Z,16.90
2023-10-20T18:51:30.158Z,17.40
2023-10-20T18:54:17.944Z,17.20
2023-10-20T18:57:05.537Z,18.50
2023-10-20T18:59:52.718Z,15.80
2023-10-20T19:02:41.488Z,16.10
2023-10-20T19:05:30.508Z,17.50
2023-10-20T19:08:19.319Z,23.60
2023-10-20T19:11:09.334Z,22.30
2023-10-20T19:13:57.381Z,27.80
2023-10-20T19:16:44.808Z,28.40
2023-10-20T19:19:31.971Z,31.00
2023-10-20T19:22:19.361Z,38.50
2023-10-20T19:25:07.190Z,47.50
2023-10-20T19:27:54.725Z,58.70
2023-10-20T19:30:41.604Z,97.20
2023-10-20T19:33:29.145Z,103.90
2023-10-20T19:36:16.512Z,109.10
2023-10-20T19:39:04.777Z,103.00
2023-10-20T19:41:52.185Z,97.30
2023-10-20T19:44:39.336Z,97.90
2023-10-20T19:47:27.060Z,102.10
2023-10-20T19:50:14.342Z,102.50
2023-10-20T19:53:01.693Z,97.60
2023-10-20T19:55:48.769Z,95.30
2023-10-20T19:58:36.067Z,96.20
2023-10-20T20:01:24.570Z,91.00
2023-10-20T20:04:11.790Z,82.50
2023-10-20T20:06:59.607Z,73.00
2023-10-20T20:09:46.703Z,53.80
2023-10-20T20:12:33.902Z,37.60
2023-10-20T20:15:24.265Z,29.40
2023-10-20T20:18:11.936Z,26.20
2023-10-20T20:20:59.304Z,21.70
2023-10-20T20:23:46.877Z,19.40
2023-10-20T20:26:34.217Z,16.50
2023-10-20T20:29:21.705Z,17.10
2023-10-20T20:32:08.832Z,17.60
2023-10-20T20:34:56.392Z,22.30
2023-10-20T20:37:43.773Z,24.00
2023-10-20T20:40:31.210Z,25.40
2023-10-20T20:43:19.054Z,24.90
2023-10-20T20:46:06.349Z,28.60
2023-10-20T20:48:54.370Z,32.60
2023-10-20T20:51:42.512Z,35.00
2023-10-20T20:54:29.539Z,33.20
2023-10-20T20:57:17.814Z,26.00
2023-10-20T21:00:07.017Z,27.70
2023-10-20T21:02:56.097Z,21.90
2023-10-20T21:05:45.257Z,18.30
2023-10-20T21:08:32.805Z,19.90
2023-10-20T21:11:20.818Z,17.90
2023-10-20T21:14:07.754Z,16.50
2023-10-20T21:16:54.913Z,15.10
2023-10-20T21:19:41.693Z,17.10
2023-10-20T21:22:29.886Z,19.40
2023-10-20T21:25:19.551Z,21.90
2023-10-20T21:28:08.557Z,22.20
2023-10-20T21:30:57.273Z,20.90
2023-10-20T21:33:45.592Z,20.80
2023-10-20T21:36:33.728Z,18.30
2023-10-20T21:39:24.912Z,17.90
2023-10-20T21:42:13.289Z,18.00
2023-10-20T21:45:05.523Z,18.50
2023-10-20T21:50:42.830Z,15.30
2023-10-20T21:53:33.288Z,14.80
2023-10-20T21:56:24.675Z,16.00
2023-10-20T21:59:14.548Z,13.80
2023-10-20T22:02:09.669Z,15.80
2023-10-20T22:04:59.979Z,11.90
2023-10-20T22:07:49.459Z,14.30
2023-10-20T22:10:37.802Z,12.30
2023-10-20T22:13:25.995Z,12.80
2023-10-20T22:16:13.954Z,13.40
2023-10-20T22:19:04.495Z,12.00
2023-10-20T22:21:52.883Z,12.40
2023-10-20T22:24:45.785Z,11.40
2023-10-20T22:31:15.732Z,13.50
2023-10-20T22:38:12.458Z,14.10
2023-10-20T22:41:21.287Z,16.40
2023-10-20T22:44:22.408Z,13.10
2023-10-20T22:47:49.799Z,16.50
2023-10-20T22:54:13.672Z,13.40
2023-10-20T22:57:30.015Z,11.80
2023-10-20T23:00:30.893Z,11.50
2023-10-20T23:03:28.692Z,12.60
2023-10-20T23:06:44.220Z,11.80
2023-10-20T23:09:42.049Z,11.80
2023-10-20T23:12:29.054Z,14.00
2023-10-20T23:15:15.850Z,12.80
2023-10-20T23:18:04.179Z,15.80
2023-10-20T23:20:55.683Z,14.30
2023-10-20T23:23:44.333Z,14.90
2023-10-20T23:26:31.248Z,14.40
2023-10-20T23:29:19.078Z,14.90
2023-10-20T23:32:06.565Z,14.00
2023-10-20T23:34:54.724Z,16.70
2023-10-20T23:37:41.776Z,14.20
2023-10-20T23:40:28.735Z,15.80
2023-10-20T23:43:16.073Z,14.20
2023-10-20T23:46:03.408Z,16.50
2023-10-20T23:48:50.882Z,14.40
2023-10-20T23:51:38.123Z,14.30
2023-10-20T23:54:24.996Z,14.00
2023-10-20T23:57:12.728Z,12.30
2023-10-20T23:59:59.864Z,11.60
